Time;durP1;ratioP1;P1;durP2;ratioP2;P2;SDS_P1;SDS_P2;PMS_P1;PMS_P2;Temp;Humidity;BMP_temperature;BMP_pressure;BME280_temperature;BME280_humidity;BME280_pressure;Samples;Min_cycle;Max_cycle;Signal;HPM_P1;HPM_P2
2021/10/01 00:07:09;;;;;;;;;;;;;;;11.23;92.38;101576.06;1277218;103;20493;-87
2021/10/01 00:09:44;;;;;;;;;;;;;;;11.21;93.23;101575.83;1272625;103;20406;-86
2021/10/01 00:12:10;;;;;;;;;;;;;;;11.22;92.62;101570.42;1282469;103;21571;-87
2021/10/01 00:15:52;;;;;;;;;;;;;;;;;;;;;
2021/10/01 00:21:17;;;;;;;;;;;;;;;11.32;92.38;101576.29;1282784;102;20315;-86
2021/10/01 00:23:49;;;;;;;;;;;;;;;11.35;92.69;101578.69;1287020;102;20828;-86
2021/10/01 00:26:15;;;;;;;;;;;;;;;11.37;92.55;101582.91;1286586;102;20335;-85
2021/10/01 00:28:41;;;;;;;;;;;;;;;11.37;92.29;101575.45;1287680;102;20855;-86
2021/10/01 00:31:07;;;;;;;;;;;;;;;11.42;92.34;101575.88;1286300;102;20868;-86
2021/10/01 00:33:33;;;;;;;;;;;;;;;11.41;91.96;101574.22;1287724;102;20342;-85
2021/10/01 00:36:00;;;;;;;;;;;;;;;11.42;92.14;101571.45;1279737;102;20914;-86
2021/10/01 00:38:32;;;;;;;;;;;;;;;11.37;91.82;101568.81;1285940;102;20883;-85
2021/10/01 00:40:58;;;;;;;;;;;;;;;11.34;92.24;101562.44;1290373;100;20298;-86
2021/10/01 00:43:24;;;;;;;;;;;;;;;11.32;92.08;101561.72;1316602;99;20412;-86
2021/10/01 00:45:50;;;;;;;;;;;;;;;11.26;92.16;101561.24;1343145;96;20325;-86
2021/10/01 00:48:16;;;;;;;;;;;;;;;11.24;92.62;101565.81;1361142;96;20444;-87
2021/10/01 00:50:42;;;;;;;;;;;;;;;11.23;92.11;101565.47;1363242;96;20407;-87
2021/10/01 00:53:08;;;;;;;;;;;;;;;11.20;92.07;101557.77;1359225;96;20446;-87
2021/10/01 00:55:34;;;;;;;;;;;;;;;11.18;91.50;101559.69;1411413;88;20498;-88
2021/10/01 00:58:00;;;;;;;;;;;;;;;11.22;91.92;101553.65;1480169;88;20252;-87
2021/10/01 01:00:29;;;;;;;;;;;;;;;11.22;91.60;101555.84;1471081;88;20793;-87
2021/10/01 01:03:00;;;;;;;;;;;;;;;11.24;91.51;101559.19;1486382;88;20281;-87
2021/10/01 01:05:49;;;;;;;;;;;;;;;11.29;91.25;101561.48;1474500;88;20295;-86
2021/10/01 01:08:17;;;;;;;;;;;;;;;11.27;91.60;101564.23;1477145;88;20352;-86
2021/10/01 01:10:51;;;;;;;;;;;;;;;11.30;91.22;101559.17;1471834;88;20339;-87
2021/10/01 01:13:23;;;;;;;;;;;;;;;11.23;90.31;101558.84;1466404;88;20385;-86
2021/10/01 01:15:53;;;;;;;;;;;;;;;11.25;91.20;101554.75;1468333;88;20273;-88
2021/10/01 01:18:31;;;;;;;;;;;;;;;11.21;91.25;101548.84;1480461;88;20274;-88
2021/10/01 01:21:00;;;;;;;;;;;;;;;11.21;91.65;101552.81;1469699;88;20794;-87
2021/10/01 01:23:39;;;;;;;;;;;;;;;11.20;91.88;101547.17;1469760;88;20453;-87
2021/10/01 01:26:21;;;;;;;;;;;;;;;11.14;91.22;101547.67;1475700;88;20400;-87
2021/10/01 01:29:07;;;;;;;;;;;;;;;11.13;91.49;101547.29;1477359;88;20295;-86
2021/10/01 01:31:49;;;;;;;;;;;;;;;11.06;92.18;101547.44;1476088;88;20273;-87
2021/10/01 01:34:22;;;;;;;;;;;;;;;11.07;91.79;101539.84;1475687;88;20326;-87
2021/10/01 01:36:53;;;;;;;;;;;;;;;11.10;91.56;101542.73;1470614;88;20274;-86
2021/10/01 01:39:19;;;;;;;;;;;;;;;11.11;91.75;101532.02;1477577;88;20916;-86
2021/10/01 01:44:39;;;;;;;;;;;;;;;11.17;91.49;101532.01;1480429;88;20333;-86
2021/10/01 01:47:05;;;;;;;;;;;;;;;11.18;91.35;101536.33;1477562;88;20215;-87
2021/10/01 01:49:32;;;;;;;;;;;;;;;11.21;90.93;101538.73;1477680;88;20939;-86
2021/10/01 01:52:00;;;;;;;;;;;;;;;11.17;90.87;101542.12;1470515;88;21105;-88
2021/10/01 01:54:27;;;;;;;;;;;;;;;11.19;90.90;101540.66;1453118;88;20451;-87
2021/10/01 01:56:55;;;;;;;;;;;;;;;11.22;91.00;101537.75;1464798;88;20230;-87
2021/10/01 01:59:22;;;;;;;;;;;;;;;11.21;91.44;101536.08;1467241;88;20399;-87
2021/10/01 02:01:49;;;;;;;;;;;;;;;11.23;91.52;101533.66;1472657;88;20259;-87
2021/10/01 02:04:17;;;;;;;;;;;;;;;11.23;91.73;101530.18;1473324;88;20395;-86
2021/10/01 02:06:47;;;;;;;;;;;;;;;11.21;91.22;101534.75;1468350;88;21258;-86
2021/10/01 02:09:14;;;;;;;;;;;;;;;11.17;90.69;101532.84;1471494;88;20341;-86
2021/10/01 02:11:41;;;;;;;;;;;;;;;11.13;91.45;101539.34;1461775;88;20280;-86
2021/10/01 02:14:08;;;;;;;;;;;;;;;11.10;91.12;101536.94;1484274;88;20296;-86
2021/10/01 02:16:35;;;;;;;;;;;;;;;11.07;91.36;101543.33;1478203;88;20317;-86
2021/10/01 02:19:02;;;;;;;;;;;;;;;11.04;91.18;101540.09;1469590;88;20280;-86
2021/10/01 02:21:29;;;;;;;;;;;;;;;11.00;91.50;101541.31;1469352;88;20884;-86
2021/10/01 02:23:58;;;;;;;;;;;;;;;10.96;91.58;101541.18;1467612;88;20384;-86
2021/10/01 02:26:43;;;;;;;;;;;;;;;10.96;91.08;101543.83;1474467;88;20296;-86
2021/10/01 02:29:28;;;;;;;;;;;;;;;10.96;91.18;101539.86;1473721;88;21004;-86
2021/10/01 02:32:15;;;;;;;;;;;;;;;10.97;91.22;101533.61;1471917;88;20289;-86
2021/10/01 02:34:44;;;;;;;;;;;;;;;10.99;91.36;101534.31;1477525;88;20318;-84
2021/10/01 02:37:10;;;;;;;;;;;;;;;11.02;90.97;101532.28;1472797;88;20266;-86
2021/10/01 02:39:39;;;;;;;;;;;;;;;11.01;91.43;101533.72;1477411;88;20317;-86
2021/10/01 02:42:55;;;;;;;;;;;;;;;10.93;89.67;101537.45;1472847;88;20280;-86
2021/10/01 02:45:21;;;;;;;;;;;;;;;10.99;90.17;101535.63;1468672;88;20296;-87
2021/10/01 02:47:47;;;;;;;;;;;;;;;11.04;90.77;101540.09;1469039;88;20823;-87
2021/10/01 02:50:16;;;;;;;;;;;;;;;11.01;89.42;101541.66;1475731;88;20816;-87
2021/10/01 02:53:21;;;;;;;;;;;;;;;10.99;89.52;101537.83;1477633;88;20883;-87
2021/10/01 02:55:54;;;;;;;;;;;;;;;11.03;89.71;101541.06;1470090;88;20295;-87
2021/10/01 02:58:22;;;;;;;;;;;;;;;10.91;89.16;101538.08;1471814;88;20332;-86
2021/10/01 03:00:50;;;;;;;;;;;;;;;10.91;90.16;101539.41;1470276;88;20260;-85
2021/10/01 03:03:20;;;;;;;;;;;;;;;10.88;90.15;101542.30;1478923;88;20288;-84
2021/10/01 03:05:47;;;;;;;;;;;;;;;10.86;89.33;101538.92;1480287;87;20333;-84
2021/10/01 03:08:16;;;;;;;;;;;;;;;10.82;89.83;101539.66;1470832;88;20303;-84
2021/10/01 03:10:43;;;;;;;;;;;;;;;10.80;90.53;101541.09;1470272;88;20340;-83
2021/10/01 03:13:11;;;;;;;;;;;;;;;10.78;90.84;101538.20;1478646;88;20273;-83
2021/10/01 03:15:37;;;;;;;;;;;;;;;10.76;90.60;101537.02;1483002;88;20280;-84
2021/10/01 03:18:04;;;;;;;;;;;;;;;10.74;90.96;101530.98;1479277;88;20288;-83
2021/10/01 03:20:30;;;;;;;;;;;;;;;10.72;90.84;101538.20;1472390;88;20270;-84
2021/10/01 03:22:57;;;;;;;;;;;;;;;10.72;90.83;101535.55;1481898;88;21096;-84
2021/10/01 03:25:23;;;;;;;;;;;;;;;10.71;90.83;101533.05;1481792;88;20399;-84
2021/10/01 03:27:50;;;;;;;;;;;;;;;10.73;90.56;101530.64;1477758;88;20444;-84
2021/10/01 03:30:16;;;;;;;;;;;;;;;10.71;90.50;101533.88;1459358;88;20312;-86
2021/10/01 03:32:42;;;;;;;;;;;;;;;10.76;89.88;101533.50;1449493;89;20297;-86
2021/10/01 03:35:10;;;;;;;;;;;;;;;10.78;89.88;101529.77;1454166;89;20283;-88
2021/10/01 03:37:37;;;;;;;;;;;;;;;10.77;89.64;101528.09;1460261;88;20296;-88
2021/10/01 03:40:07;;;;;;;;;;;;;;;10.79;89.68;101523.53;1479530;88;20303;-88
2021/10/01 03:42:33;;;;;;;;;;;;;;;10.82;89.72;101533.88;1481667;88;20868;-89
2021/10/01 03:48:31;;;;;;;;;;;;;;;10.87;89.36;101523.38;1477819;88;20229;-88
2021/10/01 03:50:57;;;;;;;;;;;;;;;10.84;89.17;101533.25;1477280;88;20906;-87
2021/10/01 03:53:23;;;;;;;;;;;;;;;10.88;88.93;101526.41;1460183;88;20830;-88
2021/10/01 03:55:50;;;;;;;;;;;;;;;10.83;89.75;101532.90;1480866;88;20956;-89
2021/10/01 03:58:16;;;;;;;;;;;;;;;10.81;89.89;101534.81;1477237;88;20808;-89
2021/10/01 04:00:46;;;;;;;;;;;;;;;10.80;89.98;101537.12;1461612;88;20922;-89
2021/10/01 04:03:13;;;;;;;;;;;;;;;10.77;89.50;101537.36;1476201;88;20318;-88
2021/10/01 04:05:40;;;;;;;;;;;;;;;10.75;89.68;101536.63;1477680;88;20317;-88
2021/10/01 04:08:08;;;;;;;;;;;;;;;10.73;89.33;101530.64;1478570;88;21554;-89
2021/10/01 04:10:34;;;;;;;;;;;;;;;10.71;89.35;101525.94;1447859;88;21878;-87
2021/10/01 04:13:07;;;;;;;;;;;;;;;10.69;89.48;101533.16;1479633;88;20373;-91
2021/10/01 04:15:34;;;;;;;;;;;;;;;10.66;90.07;101534.72;1446255;89;20377;-91
2021/10/01 04:18:01;;;;;;;;;;;;;;;10.62;90.06;101531.97;1460091;88;20412;-90
2021/10/01 04:20:34;;;;;;;;;;;;;;;10.65;90.20;101530.89;1467647;88;20367;-90
2021/10/01 04:23:03;;;;;;;;;;;;;;;10.66;90.40;101534.72;1454412;88;20298;-89
2021/10/01 04:25:30;;;;;;;;;;;;;;;10.70;89.93;101541.44;1464340;89;20380;-89
2021/10/01 04:27:56;;;;;;;;;;;;;;;10.73;90.31;101545.20;1482057;88;20340;-89
2021/10/01 04:30:23;;;;;;;;;;;;;;;10.77;89.78;101547.12;1448297;88;20354;-90
2021/10/01 04:33:12;;;;;;;;;;;;;;;10.80;90.09;101550.84;1474461;88;20259;-89
2021/10/01 04:35:30;;;;;;;;;;;;;;;10.83;90.06;101547.95;1471522;88;20251;-90
2021/10/01 04:37:56;;;;;;;;;;;;;;;10.89;90.00;101554.57;1463973;88;20306;-89
2021/10/01 04:40:23;;;;;;;;;;;;;;;10.94;89.81;101549.75;1466315;89;20282;-87
2021/10/01 04:42:49;;;;;;;;;;;;;;;10.94;89.42;101554.56;1449407;89;20313;-89
2021/10/01 04:45:15;;;;;;;;;;;;;;;10.94;89.30;101545.78;1470002;89;20980;-92
2021/10/01 04:48:32;;;;;;;;;;;;;;;10.94;89.38;101547.11;1446676;89;20365;-88
2021/10/01 04:50:58;;;;;;;;;;;;;;;10.93;89.61;101545.41;1468975;88;20290;-90
2021/10/01 04:53:24;;;;;;;;;;;;;;;10.94;90.16;101555.05;1470990;88;20746;-89
2021/10/01 04:55:51;;;;;;;;;;;;;;;10.90;89.54;101554.43;1472523;88;20376;-89
2021/10/01 04:58:19;;;;;;;;;;;;;;;10.88;89.91;101548.92;1458034;89;21148;-90
2021/10/01 05:00:46;;;;;;;;;;;;;;;10.84;89.86;101554.44;1448859;89;20268;-89
2021/10/01 05:03:12;;;;;;;;;;;;;;;10.81;89.66;101548.55;1454547;89;20347;-90
2021/10/01 05:05:38;;;;;;;;;;;;;;;10.78;89.46;101554.92;1459814;88;20291;-89
2021/10/01 05:08:04;;;;;;;;;;;;;;;10.77;90.04;101551.09;1453559;90;20383;-90
2021/10/01 05:10:31;;;;;;;;;;;;;;;10.74;89.99;101553.50;1462067;88;20237;-89
2021/10/01 05:12:57;;;;;;;;;;;;;;;10.73;89.77;101548.31;1454284;88;20321;-88
2021/10/01 05:15:23;;;;;;;;;;;;;;;10.72;89.92;101555.41;1476044;88;20369;-88
2021/10/01 05:17:51;;;;;;;;;;;;;;;10.73;89.79;101553.14;1461337;88;21614;-86
2021/10/01 05:20:17;;;;;;;;;;;;;;;10.78;89.83;101554.92;1455800;90;20276;-87
2021/10/01 05:22:43;;;;;;;;;;;;;;;10.85;89.85;101556.63;1457879;88;20283;-87
2021/10/01 05:25:10;;;;;;;;;;;;;;;10.90;89.70;101561.54;1464144;88;20291;-88
2021/10/01 05:27:37;;;;;;;;;;;;;;;10.95;89.29;101563.34;1476420;88;21494;-88
2021/10/01 05:30:04;;;;;;;;;;;;;;;10.99;89.52;101564.31;1467844;88;20295;-87
2021/10/01 05:32:30;;;;;;;;;;;;;;;11.06;89.37;101563.33;1474672;88;21677;-87
2021/10/01 05:34:56;;;;;;;;;;;;;;;11.14;89.30;101562.24;1471701;88;20392;-87
2021/10/01 05:37:22;;;;;;;;;;;;;;;11.18;88.51;101564.16;1474112;88;20314;-88
2021/10/01 05:39:48;;;;;;;;;;;;;;;11.23;88.93;101565.47;1451757;90;20981;-87
2021/10/01 05:42:14;;;;;;;;;;;;;;;11.27;88.73;101569.54;1448105;90;20298;-88
2021/10/01 05:44:40;;;;;;;;;;;;;;;11.30;88.34;101562.66;1452245;90;20365;-93
2021/10/01 05:47:07;;;;;;;;;;;;;;;11.35;87.78;101566.77;1450615;90;20268;-94
2021/10/01 05:50:15;;;;;;;;;;;;;;;11.37;87.85;101567.48;1442096;88;20276;-93
2021/10/01 05:55:12;;;;;;;;;;;;;;;11.52;88.38;101572.86;1446469;90;20338;-93
2021/10/01 05:57:43;;;;;;;;;;;;;;;11.55;88.24;101575.74;1454676;90;20425;-92
2021/10/01 06:00:09;;;;;;;;;;;;;;;11.57;87.81;101572.48;1451742;90;20343;-93
2021/10/01 06:02:35;;;;;;;;;;;;;;;11.54;86.80;101570.93;1450776;90;20276;-93
2021/10/01 06:05:02;;;;;;;;;;;;;;;11.49;86.35;101576.59;1451105;90;20797;-92
2021/10/01 06:07:28;;;;;;;;;;;;;;;11.46;85.62;101573.36;1429132;90;20249;-92
2021/10/01 06:09:55;;;;;;;;;;;;;;;11.48;85.89;101576.73;1432243;91;20954;-92
2021/10/01 06:12:21;;;;;;;;;;;;;;;11.49;85.89;101577.09;1426472;91;21134;-93
2021/10/01 06:14:48;;;;;;;;;;;;;;;11.48;84.95;101582.04;1420099;91;20315;-92
2021/10/01 06:17:15;;;;;;;;;;;;;;;11.52;84.94;101573.69;1432249;91;20415;-91
2021/10/01 06:19:43;;;;;;;;;;;;;;;11.55;84.97;101571.27;1427224;91;20279;-93
2021/10/01 06:22:10;;;;;;;;;;;;;;;11.55;85.54;101577.91;1421999;91;20338;-94
2021/10/01 06:24:38;;;;;;;;;;;;;;;11.62;85.72;101572.93;1420339;91;20264;-93
2021/10/01 06:27:06;;;;;;;;;;;;;;;11.60;84.83;101577.54;1425260;90;20300;-93
2021/10/01 06:29:34;;;;;;;;;;;;;;;11.62;84.90;101579.06;1440527;91;20278;-93
2021/10/01 06:32:01;;;;;;;;;;;;;;;11.65;84.70;101580.17;1438007;90;20286;-93
2021/10/01 06:34:27;;;;;;;;;;;;;;;11.66;84.61;101571.23;1434223;90;20293;-94
2021/10/01 06:36:53;;;;;;;;;;;;;;;11.70;85.20;101575.30;1429410;91;21013;-93
2021/10/01 06:39:19;;;;;;;;;;;;;;;11.73;84.66;101577.70;1434454;91;20294;-93
2021/10/01 06:41:45;;;;;;;;;;;;;;;11.73;84.53;101569.74;1434452;91;20300;-93
2021/10/01 06:44:17;;;;;;;;;;;;;;;11.79;84.09;101575.52;1434678;91;20353;-93
2021/10/01 06:49:38;;;;;;;;;;;;;;;11.94;85.12;101576.94;1434440;89;20253;-93
2021/10/01 07:22:51;;;;;;;;;;;;;;;13.02;82.07;101603.91;1457273;89;20302;-92
2021/10/01 07:45:26;;;;;;;;;;;;;;;13.57;78.08;101598.67;1465692;89;20417;-91
2021/10/01 08:20:41;;;;;;;;;;;;;;;14.09;77.56;101592.58;1443553;88;20410;-90
2021/10/01 08:23:07;;;;;;;;;;;;;;;14.12;77.03;101597.61;1445148;90;20283;-90
2021/10/01 08:25:33;;;;;;;;;;;;;;;14.09;75.32;101593.91;1459971;87;20363;-92
2021/10/01 08:28:01;;;;;;;;;;;;;;;14.02;75.49;101595.47;1448813;88;20268;-91
2021/10/01 08:30:27;;;;;;;;;;;;;;;13.93;75.26;101594.00;1471239;88;20343;-91
2021/10/01 08:32:57;;;;;;;;;;;;;;;13.96;75.78;101591.55;1461899;88;20327;-89
2021/10/01 08:35:24;;;;;;;;;;;;;;;13.88;75.84;101597.57;1464503;88;20342;-89
2021/10/01 08:37:52;;;;;;;;;;;;;;;13.88;76.43;101596.23;1462125;88;20786;-89
2021/10/01 08:40:19;;;;;;;;;;;;;;;13.96;77.21;101592.88;1467365;88;20336;-88
2021/10/01 08:42:46;;;;;;;;;;;;;;;13.95;75.86;101601.83;1467879;88;20310;-86
2021/10/01 08:45:14;;;;;;;;;;;;;;;13.98;76.64;101593.09;1465875;88;20311;-86
2021/10/01 08:47:41;;;;;;;;;;;;;;;14.06;75.86;101594.19;1455809;88;20381;-86
2021/10/01 08:50:09;;;;;;;;;;;;;;;14.14;76.86;101594.33;1462041;86;20410;-86
2021/10/01 08:52:36;;;;;;;;;;;;;;;14.21;76.59;101589.63;1474847;87;20374;-86
2021/10/01 08:55:03;;;;;;;;;;;;;;;14.17;75.20;101589.55;1497520;87;20318;-86
2021/10/01 08:57:31;;;;;;;;;;;;;;;14.20;75.75;101591.09;1496722;87;20845;-87
2021/10/01 08:59:59;;;;;;;;;;;;;;;14.28;75.69;101591.22;1495749;87;20371;-87
2021/10/01 09:02:25;;;;;;;;;;;;;;;14.35;75.65;101590.98;1488132;87;20334;-86
2021/10/01 09:04:55;;;;;;;;;;;;;;;14.47;75.91;101585.48;1488051;87;20284;-86
2021/10/01 09:07:23;;;;;;;;;;;;;;;14.41;73.44;101590.43;1466329;87;20384;-86
2021/10/01 09:09:47;;;;;;;;;;;;;;;14.47;74.17;101580.99;1481687;87;20395;-85
2021/10/01 09:12:14;;;;;;;;;;;;;;;14.65;74.41;101581.95;1464013;87;20751;-86
2021/10/01 09:14:53;;;;;;;;;;;;;;;14.62;72.58;101582.75;1480736;88;20229;-86
2021/10/01 09:17:22;;;;;;;;;;;;;;;14.57;72.87;101582.34;1488705;86;20927;-90
2021/10/01 09:19:49;;;;;;;;;;;;;;;14.62;73.98;101585.42;1480932;86;20260;-89
2021/10/01 09:22:25;;;;;;;;;;;;;;;14.66;74.01;101588.12;1489371;87;20273;-90
2021/10/01 09:24:52;;;;;;;;;;;;;;;14.65;73.63;101583.79;1483797;87;20369;-88
2021/10/01 09:27:23;;;;;;;;;;;;;;;14.84;74.75;101589.02;1473347;86;20436;-89
2021/10/01 09:29:49;;;;;;;;;;;;;;;14.85;71.25;101584.05;1476435;88;20281;-90
2021/10/01 09:32:16;;;;;;;;;;;;;;;14.86;72.66;101581.72;1487980;88;21040;-89
2021/10/01 09:34:45;;;;;;;;;;;;;;;15.17;73.14;101585.43;1479968;88;20339;-89
2021/10/01 09:37:14;;;;;;;;;;;;;;;15.39;71.01;101579.31;1482085;88;20368;-90
2021/10/01 09:39:46;;;;;;;;;;;;;;;15.67;70.80;101570.25;1476282;88;20319;-89
2021/10/01 09:42:18;;;;;;;;;;;;;;;15.87;70.21;101569.63;1486247;86;20257;-89
2021/10/01 09:44:50;;;;;;;;;;;;;;;15.81;70.20;101571.58;1477554;86;20414;-90
2021/10/01 09:47:29;;;;;;;;;;;;;;;15.81;70.11;101561.41;1469660;88;20886;-89
2021/10/01 09:49:58;;;;;;;;;;;;;;;15.86;69.69;101567.12;1468067;88;20480;-88
2021/10/01 09:52:51;;;;;;;;;;;;;;;15.84;70.14;101564.59;1450843;88;20401;-90
2021/10/01 09:55:23;;;;;;;;;;;;;;;15.92;70.41;101560.66;1455822;89;20335;-89
2021/10/01 09:58:11;;;;;;;;;;;;;;;16.05;70.36;101564.25;1410600;91;20854;-88
2021/10/01 10:00:53;;;;;;;;;;;;;;;16.07;70.05;101566.27;1472583;88;20452;-90
2021/10/01 10:03:41;;;;;;;;;;;;;;;16.03;68.93;101563.59;1468958;88;20696;-90
2021/10/01 10:06:14;;;;;;;;;;;;;;;16.14;69.52;101564.67;1458857;88;20290;-89
2021/10/01 10:08:39;;;;;;;;;;;;;;;16.30;69.43;101563.92;1464546;87;20298;-89
2021/10/01 10:11:11;;;;;;;;;;;;;;;16.27;68.54;101560.23;1456428;88;20432;-89
2021/10/01 10:13:43;;;;;;;;;;;;;;;16.25;69.69;101563.55;1459987;88;20291;-89
2021/10/01 10:16:15;;;;;;;;;;;;;;;16.34;69.22;101567.11;1471546;88;20356;-89
2021/10/01 10:18:41;;;;;;;;;;;;;;;16.37;68.50;101569.47;1470114;88;20333;-90
2021/10/01 10:21:08;;;;;;;;;;;;;;;16.39;68.33;101568.31;1475366;88;20214;-90
2021/10/01 10:23:35;;;;;;;;;;;;;;;16.30;68.58;101569.27;1490229;87;20399;-89
2021/10/01 10:26:01;;;;;;;;;;;;;;;16.26;68.42;101567.09;1490666;87;20355;-89
2021/10/01 10:28:27;;;;;;;;;;;;;;;16.23;68.43;101569.57;1476538;87;20310;-90
2021/10/01 10:30:55;;;;;;;;;;;;;;;16.20;68.15;101566.71;1477070;87;20349;-88
2021/10/01 10:33:47;;;;;;;;;;;;;;;16.16;68.23;101570.67;1478816;88;20321;-89
2021/10/01 10:36:35;;;;;;;;;;;;;;;16.08;69.40;101561.27;1484807;87;20289;-89
2021/10/01 10:39:11;;;;;;;;;;;;;;;16.02;69.64;101561.89;1477639;87;20261;-89
2021/10/01 10:41:40;;;;;;;;;;;;;;;15.96;69.77;101563.84;1484374;87;20280;-89
2021/10/01 10:44:07;;;;;;;;;;;;;;;15.88;69.11;101559.78;1486140;87;20357;-89
2021/10/01 10:46:40;;;;;;;;;;;;;;;15.77;68.68;101567.55;1468119;88;20297;-89
2021/10/01 10:49:22;;;;;;;;;;;;;;;15.74;69.45;101560.69;1481090;87;20295;-90
2021/10/01 10:52:17;;;;;;;;;;;;;;;15.70;69.50;101557.97;1481438;87;20414;-90
2021/10/01 10:54:51;;;;;;;;;;;;;;;15.72;69.37;101565.33;1479186;88;20275;-90
2021/10/01 10:57:25;;;;;;;;;;;;;;;15.76;69.62;101563.19;1461753;88;20298;-89
2021/10/01 10:59:59;;;;;;;;;;;;;;;15.78;70.34;101557.20;1480824;87;20636;-89
2021/10/01 11:02:33;;;;;;;;;;;;;;;15.72;70.22;101561.83;1485019;87;20920;-90
2021/10/01 11:05:24;;;;;;;;;;;;;;;15.70;70.85;101559.30;1474401;89;20377;-89
2021/10/01 11:07:57;;;;;;;;;;;;;;;15.70;70.74;101552.63;1452554;90;20238;-90
2021/10/01 11:10:47;;;;;;;;;;;;;;;15.66;70.69;101559.25;1452478;90;20340;-89
2021/10/01 11:13:23;;;;;;;;;;;;;;;15.65;70.91;101558.05;1460041;89;20289;-89
2021/10/01 11:16:11;;;;;;;;;;;;;;;15.42;71.58;101552.33;1447151;90;20293;-90
2021/10/01 11:18:47;;;;;;;;;;;;;;;15.55;71.13;101552.80;1434639;90;20582;-89
2021/10/01 11:21:30;;;;;;;;;;;;;;;15.64;71.12;101553.22;1444418;90;20291;-89
2021/10/01 11:24:03;;;;;;;;;;;;;;;15.68;71.29;101541.29;1432519;91;20302;-89
2021/10/01 11:26:33;;;;;;;;;;;;;;;15.70;71.11;101547.30;1450319;89;20298;-89
2021/10/01 11:29:00;;;;;;;;;;;;;;;15.78;71.67;101542.03;1428327;91;20993;-89
2021/10/01 11:31:41;;;;;;;;;;;;;;;15.80;71.13;101540.55;1452700;89;20818;-88
2021/10/01 11:34:08;;;;;;;;;;;;;;;15.85;70.58;101544.07;1436707;90;20271;-90
2021/10/01 11:36:39;;;;;;;;;;;;;;;15.80;70.01;101536.55;1446536;90;20301;-90
2021/10/01 11:39:09;;;;;;;;;;;;;;;15.88;71.01;101537.09;1444703;90;20289;-91
2021/10/01 11:41:43;;;;;;;;;;;;;;;15.89;71.07;101534.78;1447903;90;20890;-90
2021/10/01 11:44:13;;;;;;;;;;;;;;;15.94;70.25;101536.46;1441968;90;20242;-90
2021/10/01 11:46:47;;;;;;;;;;;;;;;16.01;70.13;101540.20;1436661;90;20428;-89
2021/10/01 11:49:24;;;;;;;;;;;;;;;16.03;70.07;101534.72;1449675;90;20404;-90
2021/10/01 11:52:02;;;;;;;;;;;;;;;16.15;70.78;101533.45;1447067;90;20494;-89
2021/10/01 11:54:29;;;;;;;;;;;;;;;16.21;69.90;101530.98;1454846;90;20263;-89
2021/10/01 11:56:58;;;;;;;;;;;;;;;16.20;68.56;101525.81;1456925;88;20289;-88
2021/10/01 11:59:27;;;;;;;;;;;;;;;16.12;67.77;101523.92;1463539;88;20296;-89
2021/10/01 12:02:01;;;;;;;;;;;;;;;16.05;68.24;101526.86;1446319;90;20285;-88
2021/10/01 12:04:33;;;;;;;;;;;;;;;15.96;67.20;101523.30;1450180;90;20827;-89
2021/10/01 12:07:05;;;;;;;;;;;;;;;16.00;69.14;101523.84;1478075;89;20296;-89
2021/10/01 12:09:32;;;;;;;;;;;;;;;15.91;67.43;101528.30;1471777;88;20551;-88
2021/10/01 12:12:07;;;;;;;;;;;;;;;16.01;68.77;101526.84;1469059;88;20396;-90
2021/10/01 12:14:34;;;;;;;;;;;;;;;15.96;67.91;101517.12;1467752;88;20393;-90
2021/10/01 12:17:05;;;;;;;;;;;;;;;16.03;68.53;101516.03;1474701;89;21164;-89
2021/10/01 12:19:32;;;;;;;;;;;;;;;16.07;68.62;101507.52;1466149;89;20274;-90
2021/10/01 12:22:14;;;;;;;;;;;;;;;16.16;69.20;101511.09;1477414;88;20794;-89
2021/10/01 12:24:51;;;;;;;;;;;;;;;16.28;69.25;101510.31;1467363;88;20581;-90
2021/10/01 12:27:20;;;;;;;;;;;;;;;16.37;69.07;101507.55;1461380;88;20334;-90
2021/10/01 12:29:51;;;;;;;;;;;;;;;16.47;67.98;101507.41;1466257;89;20275;-90
2021/10/01 12:32:21;;;;;;;;;;;;;;;16.59;67.85;101502.12;1468131;89;20311;-90
2021/10/01 12:34:55;;;;;;;;;;;;;;;16.74;67.61;101502.84;1469112;89;20259;-91
2021/10/01 12:37:22;;;;;;;;;;;;;;;16.87;66.02;101503.26;1467783;89;20868;-91
2021/10/01 12:39:56;;;;;;;;;;;;;;;17.07;68.28;101495.28;1470647;88;20342;-91
2021/10/01 12:42:25;;;;;;;;;;;;;;;17.22;66.19;101494.64;1472470;88;20281;-89
2021/10/01 12:45:12;;;;;;;;;;;;;;;17.30;66.09;101494.66;1468682;89;20810;-90
2021/10/01 12:47:40;;;;;;;;;;;;;;;17.48;65.95;101492.65;1467857;88;21437;-90
2021/10/01 12:50:10;;;;;;;;;;;;;;;17.72;64.42;101484.27;1468157;88;20509;-90
2021/10/01 12:52:39;;;;;;;;;;;;;;;17.97;63.58;101487.28;1472252;89;20853;-90
2021/10/01 12:55:11;;;;;;;;;;;;;;;18.04;60.09;101484.27;1473944;88;20794;-90
2021/10/01 12:57:42;;;;;;;;;;;;;;;18.21;62.48;101485.07;1468567;88;20444;-90
2021/10/01 13:00:11;;;;;;;;;;;;;;;18.43;61.40;101489.34;1462554;89;20494;-90
2021/10/01 13:02:46;;;;;;;;;;;;;;;18.75;61.58;101491.06;1461589;89;20363;-90
2021/10/01 13:05:25;;;;;;;;;;;;;;;18.79;57.75;101489.72;1457914;89;20269;-91
2021/10/01 13:08:02;;;;;;;;;;;;;;;18.84;58.61;101484.64;1459419;89;20289;-90
2021/10/01 13:10:31;;;;;;;;;;;;;;;19.05;58.47;101471.13;1453788;88;20290;-90
2021/10/01 13:13:03;;;;;;;;;;;;;;;19.31;58.11;101470.27;1466434;88;20952;-89
2021/10/01 13:15:52;;;;;;;;;;;;;;;19.45;58.09;101463.77;1457767;89;20782;-89
2021/10/01 13:18:31;;;;;;;;;;;;;;;19.56;58.66;101461.98;1432745;89;20313;-89
2021/10/01 13:21:17;;;;;;;;;;;;;;;19.54;58.09;101466.73;1466729;88;20334;-89
2021/10/01 13:23:58;;;;;;;;;;;;;;;19.47;58.79;101464.42;1468122;88;20326;-89
2021/10/01 13:26:27;;;;;;;;;;;;;;;19.62;58.05;101462.60;1472205;88;20296;-88
2021/10/01 13:29:01;;;;;;;;;;;;;;;20.02;58.88;101460.56;1466573;88;20863;-89
2021/10/01 13:31:24;;;;;;;;;;;;;;;20.25;56.89;101459.12;1454921;89;20320;-89
2021/10/01 13:33:54;;;;;;;;;;;;;;;19.98;54.68;101454.73;1460032;89;20231;-90
2021/10/01 13:36:21;;;;;;;;;;;;;;;19.98;56.01;101459.27;1457246;88;20283;-89
2021/10/01 13:38:49;;;;;;;;;;;;;;;19.72;55.32;101455.16;1463554;86;20345;-89
2021/10/01 13:41:17;;;;;;;;;;;;;;;19.35;56.10;101459.48;1456259;88;20310;-90
2021/10/01 13:43:44;;;;;;;;;;;;;;;18.93;57.26;101454.10;1464324;86;20337;-88
2021/10/01 13:46:14;;;;;;;;;;;;;;;18.58;57.26;101450.56;1463997;88;20343;-89
2021/10/01 13:48:40;;;;;;;;;;;;;;;18.66;58.74;101453.21;1475340;88;20240;-88
2021/10/01 13:51:07;;;;;;;;;;;;;;;19.25;57.20;101452.20;1480002;88;20362;-88
2021/10/01 13:53:33;;;;;;;;;;;;;;;19.50;55.49;101446.61;1476082;88;20298;-89
2021/10/01 13:55:59;;;;;;;;;;;;;;;19.50;55.95;101441.23;1467149;88;20312;-89
2021/10/01 13:58:25;;;;;;;;;;;;;;;19.24;56.24;101447.83;1468704;88;20431;-90
2021/10/01 14:00:53;;;;;;;;;;;;;;;19.62;56.15;101443.80;1461622;88;20261;-87
2021/10/01 14:03:21;;;;;;;;;;;;;;;20.27;56.22;101440.45;1468734;88;20402;-87
2021/10/01 14:05:48;;;;;;;;;;;;;;;20.98;52.71;101443.08;1470977;88;20350;-87
2021/10/01 14:08:15;;;;;;;;;;;;;;;21.64;50.65;101438.30;1450234;88;20408;-87
2021/10/01 14:10:48;;;;;;;;;;;;;;;22.06;48.74;101435.95;1454087;88;20468;-85
2021/10/01 14:13:16;;;;;;;;;;;;;;;22.59;48.53;101437.28;1462875;88;20318;-86
2021/10/01 14:15:45;;;;;;;;;;;;;;;22.83;48.20;101435.36;1481401;88;20295;-86
2021/10/01 14:18:12;;;;;;;;;;;;;;;22.74;45.94;101436.59;1474033;88;20926;-85
2021/10/01 14:20:40;;;;;;;;;;;;;;;23.11;45.88;101436.59;1476927;88;20295;-85
2021/10/01 14:23:07;;;;;;;;;;;;;;;23.45;44.52;101429.84;1458877;88;20387;-85
2021/10/01 14:25:35;;;;;;;;;;;;;;;23.96;43.61;101427.83;1464525;88;20333;-84
2021/10/01 14:28:07;;;;;;;;;;;;;;;24.55;42.09;101429.52;1460188;88;20290;-86
2021/10/01 14:30:35;;;;;;;;;;;;;;;24.81;40.87;101430.42;1449354;88;20306;-85
2021/10/01 14:33:02;;;;;;;;;;;;;;;24.96;40.83;101428.23;1457623;88;20289;-87
2021/10/01 14:35:28;;;;;;;;;;;;;;;24.89;40.31;101424.75;1461775;89;20312;-84
2021/10/01 14:37:54;;;;;;;;;;;;;;;23.67;41.37;101425.05;1464466;88;20830;-84
2021/10/01 14:40:21;;;;;;;;;;;;;;;23.13;43.18;101426.92;1463447;88;20319;-85